Time;durP1;ratioP1;P1;durP2;ratioP2;P2;SDS_P1;SDS_P2;PMS_P1;PMS_P2;Temp;Humidity;BMP_temperature;BMP_pressure;BME280_temperature;BME280_humidity;BME280_pressure;Samples;Min_cycle;Max_cycle;Signal;HPM_P1;HPM_P2
2024/01/21 00:01:00;;;;;;;3.90;2.50;;;;;;;18.66;34.75;102367.41;4973424;28;20033;-86
2024/01/21 00:03:25;;;;;;;3.72;2.60;;;;;;;18.20;34.78;102291.44;4947260;28;20037;-86
2024/01/21 00:05:51;;;;;;;3.13;2.13;;;;;;;18.59;34.84;102353.06;4983064;28;20049;-86
2024/01/21 00:08:16;;;;;;;3.70;2.63;;;;;;;18.40;34.78;102330.94;4956019;28;20038;-86
2024/01/21 00:10:42;;;;;;;3.60;2.47;;;;;;;18.58;34.76;102344.31;4935541;28;20041;-86
2024/01/21 00:13:07;;;;;;;5.68;2.67;;;;;;;18.39;34.80;102315.25;4993960;28;20038;-85
2024/01/21 00:15:33;;;;;;;4.53;2.80;;;;;;;18.55;34.94;102341.94;5000607;28;20050;-86
2024/01/21 00:17:58;;;;;;;3.20;2.50;;;;;;;18.36;34.84;102310.25;4952187;28;20042;-85
2024/01/21 00:20:24;;;;;;;3.83;2.45;;;;;;;18.35;34.99;102298.84;4987654;28;20037;-86
2024/01/21 00:22:50;;;;;;;4.15;2.67;;;;;;;18.36;34.96;102304.97;4916102;28;20038;-86
2024/01/21 00:25:16;;;;;;;5.10;2.80;;;;;;;18.53;34.93;102324.59;4983854;28;20046;-85
2024/01/21 00:27:41;;;;;;;2.85;2.30;;;;;;;18.41;34.59;102302.75;4929946;28;20042;-86
2024/01/21 00:30:07;;;;;;;2.78;2.33;;;;;;;18.43;34.72;102304.28;4953292;28;20049;-86
2024/01/21 00:32:32;;;;;;;3.78;2.65;;;;;;;18.21;34.96;102261.47;4973630;28;20034;-92
2024/01/21 00:34:58;;;;;;;3.05;2.28;;;;;;;18.34;34.93;102285.81;4968102;28;20044;-91
2024/01/21 00:37:23;;;;;;;3.30;2.53;;;;;;;18.09;34.90;102240.47;4957566;28;20042;-91
2024/01/21 00:39:49;;;;;;;3.65;2.50;;;;;;;18.38;35.03;102277.47;4983751;28;20042;-91
2024/01/21 00:42:14;;;;;;;3.38;2.60;;;;;;;18.45;34.94;102296.22;4921613;28;20038;-90
2024/01/21 00:44:40;;;;;;;3.78;2.70;;;;;;;18.32;34.75;102270.13;4986035;28;20061;-91
2024/01/21 00:47:06;;;;;;;3.72;2.85;;;;;;;18.44;34.93;102291.94;4955092;28;20069;-91
2024/01/21 00:49:32;;;;;;;4.60;2.88;;;;;;;18.43;34.91;102288.44;4997985;28;20045;-87
2024/01/21 00:51:58;;;;;;;3.50;2.50;;;;;;;18.19;34.95;102251.06;4917796;28;21585;-90
2024/01/21 00:54:24;;;;;;;2.95;2.65;;;;;;;18.34;35.00;102278.72;4986723;28;20064;-91
2024/01/21 00:56:49;;;;;;;4.80;2.90;;;;;;;18.38;34.93;102269.56;4919550;28;20042;-90
2024/01/21 00:59:15;;;;;;;3.60;2.53;;;;;;;18.37;34.94;102260.00;4987363;28;20041;-90
2024/01/21 01:01:40;;;;;;;4.60;2.65;;;;;;;18.27;34.94;102245.94;4984753;28;20663;-89
2024/01/21 01:04:06;;;;;;;3.30;2.72;;;;;;;18.38;34.91;102253.75;4938423;28;20592;-91
2024/01/21 01:06:33;;;;;;;4.03;3.15;;;;;;;18.36;35.01;102260.97;5016336;28;20034;-87
2024/01/21 01:08:59;;;;;;;3.30;2.60;;;;;;;18.00;34.91;102199.13;4968382;28;20417;-90
2024/01/21 01:11:24;;;;;;;4.35;2.75;;;;;;;18.21;35.00;102230.66;4991428;28;20038;-89
2024/01/21 01:13:51;;;;;;;5.22;2.72;;;;;;;18.21;35.00;102232.47;4943553;28;20480;-88
2024/01/21 01:16:16;;;;;;;3.50;2.63;;;;;;;18.06;34.96;102209.13;4986292;28;20065;-88
2024/01/21 01:18:42;;;;;;;3.80;2.78;;;;;;;17.58;34.90;102137.78;4985192;28;20176;-89
2024/01/21 01:21:10;;;;;;;2.90;2.42;;;;;;;18.15;34.95;102225.09;4984184;28;20057;-88
2024/01/21 01:23:35;;;;;;;4.93;3.10;;;;;;;18.08;35.10;102220.34;4950124;28;20042;-90
2024/01/21 01:26:01;;;;;;;4.15;3.03;;;;;;;18.11;35.15;102214.81;4983766;28;20105;-89
2024/01/21 01:28:27;;;;;;;3.28;2.50;;;;;;;18.19;35.06;102229.13;4929476;28;20057;-89
2024/01/21 01:30:52;;;;;;;4.00;2.85;;;;;;;18.24;34.98;102240.09;4983795;28;20050;-88
2024/01/21 01:33:18;;;;;;;2.83;2.30;;;;;;;18.21;35.42;102225.41;4929788;28;21066;-89
2024/01/21 01:35:43;;;;;;;4.07;2.70;;;;;;;18.16;34.87;102210.97;4982341;28;20053;-91
2024/01/21 01:38:12;;;;;;;4.57;2.78;;;;;;;18.09;34.93;102200.94;4930709;28;20738;-88
2024/01/21 01:40:38;;;;;;;3.58;2.83;;;;;;;18.03;35.18;102184.84;5004260;28;20041;-88
2024/01/21 01:43:03;;;;;;;3.78;2.80;;;;;;;18.23;35.12;102212.06;4970434;28;20099;-88
2024/01/21 01:45:29;;;;;;;4.85;2.88;;;;;;;18.20;35.17;102213.19;4986438;28;20059;-89
2024/01/21 01:47:56;;;;;;;4.40;2.67;;;;;;;17.90;35.11;102149.97;4964737;28;20033;-91
2024/01/21 01:50:22;;;;;;;4.43;2.97;;;;;;;17.83;35.10;102139.16;4990062;28;21558;-90
2024/01/21 01:52:49;;;;;;;4.13;2.90;;;;;;;17.90;35.14;102137.63;5014325;28;20592;-89
2024/01/21 01:55:15;;;;;;;3.03;2.53;;;;;;;18.17;34.96;102186.25;4956234;28;20036;-88
2024/01/21 01:57:41;;;;;;;3.67;2.60;;;;;;;18.17;35.03;102170.44;4999884;28;20033;-89
2024/01/21 02:00:07;;;;;;;3.65;2.50;;;;;;;18.17;35.18;102167.81;4977119;28;20120;-88
2024/01/21 02:02:40;;;;;;;3.97;2.40;;;;;;;18.01;35.04;102142.81;5019842;28;20052;-88
2024/01/21 02:05:06;;;;;;;3.83;2.60;;;;;;;17.52;34.98;102043.50;4950088;28;20421;-88
2024/01/21 02:07:32;;;;;;;3.63;2.70;;;;;;;17.95;35.08;102119.59;5019887;28;20602;-88
2024/01/21 02:09:59;;;;;;;3.55;2.55;;;;;;;18.03;35.05;102119.78;4952773;28;20042;-89
2024/01/21 02:12:25;;;;;;;4.13;2.40;;;;;;;17.79;35.16;102078.00;4984243;28;20136;-90
2024/01/21 02:14:51;;;;;;;4.13;2.50;;;;;;;17.92;35.21;102092.69;4982235;28;20030;-89
2024/01/21 02:17:16;;;;;;;4.78;2.83;;;;;;;17.99;34.98;102105.22;4949089;28;20064;-89
2024/01/21 02:19:42;;;;;;;3.35;2.20;;;;;;;18.11;35.04;102122.53;4991445;28;20048;-89
2024/01/21 02:22:07;;;;;;;3.40;2.45;;;;;;;17.86;35.23;102083.53;4933806;28;20046;-89
2024/01/21 02:24:33;;;;;;;4.80;2.78;;;;;;;17.80;35.08;102073.56;5002614;28;20347;-89
2024/01/21 02:27:00;;;;;;;4.47;2.75;;;;;;;18.09;35.07;102099.94;4905083;28;20112;-89
2024/01/21 02:29:25;;;;;;;3.22;2.45;;;;;;;18.07;35.15;102093.97;5009740;28;20048;-88
2024/01/21 02:31:55;;;;;;;3.58;2.58;;;;;;;18.07;35.05;102094.78;4996014;28;20057;-89
2024/01/21 02:34:21;;;;;;;4.13;2.83;;;;;;;18.07;35.13;102092.16;4974604;28;20714;-90
2024/01/21 02:36:47;;;;;;;3.28;2.60;;;;;;;17.88;34.94;102057.03;4992090;28;20104;-89
2024/01/21 02:39:13;;;;;;;4.38;2.72;;;;;;;17.88;35.23;102049.13;4958191;28;21007;-88
2024/01/21 02:41:38;;;;;;;3.72;2.70;;;;;;;17.95;35.03;102063.44;5004731;28;20068;-89
2024/01/21 02:44:04;;;;;;;4.13;2.33;;;;;;;17.95;35.27;102066.06;4965383;28;20054;-89
2024/01/21 02:46:30;;;;;;;3.40;2.35;;;;;;;17.90;35.19;102052.47;4959796;28;20029;-89
2024/01/21 02:48:55;;;;;;;3.90;2.55;;;;;;;17.88;35.04;102042.06;4963729;28;20046;-89
2024/01/21 02:51:21;;;;;;;4.28;2.60;;;;;;;17.99;35.29;102065.66;4988937;28;20034;-89
2024/01/21 02:53:47;;;;;;;3.70;2.65;;;;;;;17.79;35.19;102021.81;4930966;28;20033;-89
2024/01/21 02:56:23;;;;;;;4.13;3.10;;;;;;;17.91;35.18;102039.16;4994337;28;20048;-89
2024/01/21 02:58:53;;;;;;;3.17;2.50;;;;;;;17.81;35.21;102020.72;4959337;28;20071;-90
2024/01/21 03:01:19;;;;;;;4.43;2.70;;;;;;;17.97;35.25;102040.44;4996572;28;20124;-89
2024/01/21 03:03:45;;;;;;;4.38;2.90;;;;;;;17.86;35.12;102028.19;4961004;28;20046;-89
2024/01/21 03:06:10;;;;;;;3.58;2.40;;;;;;;17.75;35.30;101999.34;4993638;28;20480;-89
2024/01/21 03:08:36;;;;;;;3.63;2.50;;;;;;;17.59;35.35;101973.50;5007824;28;20037;-89
2024/01/21 03:11:02;;;;;;;3.15;2.30;;;;;;;17.89;35.18;102000.75;4959528;28;20040;-89
2024/01/21 03:13:28;;;;;;;3.55;2.63;;;;;;;17.75;35.01;101975.63;5002037;28;20029;-90
2024/01/21 03:15:53;;;;;;;2.78;2.28;;;;;;;17.81;35.17;101983.84;4947350;28;20056;-89
2024/01/21 03:18:19;;;;;;;3.75;2.60;;;;;;;17.71;35.13;101968.97;4981772;28;20080;-90
2024/01/21 03:20:46;;;;;;;2.97;2.53;;;;;;;17.70;35.25;101965.50;4941038;28;20046;-89
2024/01/21 03:23:12;;;;;;;3.55;2.22;;;;;;;17.94;35.07;101987.97;5009547;28;20045;-89
2024/01/21 03:25:37;;;;;;;3.30;2.50;;;;;;;17.76;35.13;101958.84;4974383;28;20038;-89
2024/01/21 03:28:03;;;;;;;2.88;2.40;;;;;;;17.79;35.38;101956.78;4980083;28;20052;-90
2024/01/21 03:30:29;;;;;;;3.45;2.50;;;;;;;17.74;35.30;101944.97;4979141;28;20343;-89
2024/01/21 03:32:55;;;;;;;3.42;2.50;;;;;;;17.76;35.18;101933.34;4946495;28;20114;-89
2024/01/21 03:35:20;;;;;;;3.70;2.60;;;;;;;17.71;34.98;101906.59;5023981;28;20050;-89
2024/01/21 03:37:48;;;;;;;3.72;2.42;;;;;;;17.84;35.22;101916.84;4970130;28;20076;-89
2024/01/21 03:40:14;;;;;;;3.50;2.10;;;;;;;17.59;35.17;101883.94;4982562;28;20041;-89
2024/01/21 03:42:39;;;;;;;3.35;2.65;;;;;;;16.65;35.16;101714.34;4988713;28;20025;-90
2024/01/21 03:45:05;;;;;;;3.08;2.30;;;;;;;17.53;35.14;101856.38;4940779;28;20057;-89
2024/01/21 03:47:31;;;;;;;2.85;2.13;;;;;;;17.68;35.16;101884.97;5010136;28;20104;-89
2024/01/21 03:49:57;;;;;;;4.63;2.70;;;;;;;16.92;34.93;101755.81;4973872;28;20041;-90
2024/01/21 03:52:22;;;;;;;2.85;2.10;;;;;;;17.65;35.20;101875.50;4995705;28;20041;-91
2024/01/21 03:54:48;;;;;;;3.55;2.33;;;;;;;17.77;35.13;101892.00;5008392;28;20038;-89
2024/01/21 03:57:13;;;;;;;3.10;2.20;;;;;;;17.75;34.99;101891.31;4913632;28;20655;-91
2024/01/21 03:59:40;;;;;;;2.58;2.10;;;;;;;17.43;35.00;101837.13;4996199;28;20024;-91
2024/01/21 04:02:06;;;;;;;3.65;2.40;;;;;;;17.70;35.00;101886.47;4946488;28;20107;-90
2024/01/21 04:04:31;;;;;;;2.40;2.13;;;;;;;17.66;34.95;101884.25;4993572;28;20026;-91
2024/01/21 04:06:57;;;;;;;2.63;2.03;;;;;;;17.81;35.08;101898.69;4926398;28;21940;-92
2024/01/21 04:09:23;;;;;;;2.42;2.00;;;;;;;17.84;35.23;101892.31;4975520;28;20465;-91
2024/01/21 04:11:49;;;;;;;2.53;2.03;;;;;;;17.52;35.15;101843.34;5005053;28;20045;-89
2024/01/21 04:14:15;;;;;;;3.47;2.20;;;;;;;17.68;35.25;101855.97;4995523;28;20060;-89
2024/01/21 04:16:41;;;;;;;3.08;2.13;;;;;;;17.81;34.99;101865.25;4940603;28;20030;-89
2024/01/21 04:19:07;;;;;;;2.97;1.83;;;;;;;17.72;35.04;101855.56;4995810;28;20104;-89
2024/01/21 04:21:33;;;;;;;3.35;2.22;;;;;;;17.58;35.15;101828.78;4945932;28;20060;-89
2024/01/21 04:23:59;;;;;;;2.78;2.03;;;;;;;17.72;35.11;101863.47;4995290;28;20671;-90
2024/01/21 04:26:25;;;;;;;2.40;2.05;;;;;;;17.51;35.10;101824.09;4939317;28;20042;-90
2024/01/21 04:28:50;;;;;;;2.08;1.80;;;;;;;17.73;35.02;101854.59;4976303;28;20560;-89
2024/01/21 04:31:16;;;;;;;3.65;2.28;;;;;;;17.69;35.22;101844.47;4971617;28;21834;-89
2024/01/21 04:33:41;;;;;;;2.83;2.15;;;;;;;17.71;35.08;101853.91;5023487;28;20120;-89
2024/01/21 04:36:08;;;;;;;3.33;2.00;;;;;;;17.51;35.22;101803.03;4974629;28;20046;-89
2024/01/21 04:38:34;;;;;;;4.53;2.35;;;;;;;17.69;34.85;101826.03;5010231;28;20041;-89
2024/01/21 04:41:00;;;;;;;2.58;2.00;;;;;;;17.69;35.10;101815.50;4960282;28;20438;-89
2024/01/21 04:43:25;;;;;;;2.92;2.03;;;;;;;17.75;35.03;101833.38;4993897;28;20118;-90
2024/01/21 04:45:51;;;;;;;2.20;1.70;;;;;;;17.48;35.36;101781.41;4960864;28;20041;-90
2024/01/21 04:48:16;;;;;;;2.65;1.88;;;;;;;17.68;35.24;101811.22;4994800;28;20167;-90
2024/01/21 04:50:42;;;;;;;2.03;1.80;;;;;;;17.66;35.22;101799.94;4926732;28;20041;-89
2024/01/21 04:53:08;;;;;;;2.33;1.75;;;;;;;17.67;35.04;101793.72;5008068;28;20045;-89
2024/01/21 04:55:34;;;;;;;1.80;1.65;;;;;;;17.46;35.10;101757.84;4944795;28;20061;-91
2024/01/21 04:58:00;;;;;;;3.03;2.10;;;;;;;17.55;35.13;101774.59;4982230;28;20048;-89
2024/01/21 05:00:25;;;;;;;3.15;1.70;;;;;;;17.56;35.19;101765.72;4989364;28;20041;-90
2024/01/21 05:02:51;;;;;;;3.00;2.17;;;;;;;17.55;35.09;101766.69;4926067;28;20178;-90
2024/01/21 05:05:16;;;;;;;2.08;1.85;;;;;;;17.66;35.27;101784.16;5007269;28;20033;-89
2024/01/21 05:07:42;;;;;;;2.42;1.73;;;;;;;17.53;35.09;101763.38;4936596;28;20042;-89
2024/01/21 05:10:08;;;;;;;2.38;1.70;;;;;;;17.68;35.16;101787.50;5003910;28;20060;-90
2024/01/21 05:12:34;;;;;;;2.33;1.98;;;;;;;17.70;35.25;101791.66;4943716;28;20060;-89
2024/01/21 05:14:59;;;;;;;2.58;1.70;;;;;;;17.69;35.02;101787.34;4982628;28;20057;-90
2024/01/21 05:17:25;;;;;;;2.78;1.77;;;;;;;17.52;35.03;101752.00;4958047;28;20037;-90
2024/01/21 05:19:50;;;;;;;1.77;1.45;;;;;;;17.54;34.93;101738.69;5006530;28;20198;-90
2024/01/21 05:22:16;;;;;;;2.58;1.70;;;;;;;17.52;35.17;101730.94;4959339;28;20058;-89
2024/01/21 05:24:41;;;;;;;1.88;1.60;;;;;;;17.36;35.28;101693.00;4989804;28;20114;-90
2024/01/21 05:27:07;;;;;;;2.13;1.80;;;;;;;17.52;35.18;101728.31;4932430;28;20734;-91
2024/01/21 05:29:33;;;;;;;1.38;1.25;;;;;;;17.41;35.07;101693.41;5004047;28;20029;-90
2024/01/21 05:31:58;;;;;;;3.13;2.00;;;;;;;17.47;35.05;101698.13;4957524;28;20033;-90
2024/01/21 05:34:24;;;;;;;2.35;1.75;;;;;;;17.38;35.09;101689.25;4986558;28;20481;-90
2024/01/21 05:36:49;;;;;;;2.13;1.58;;;;;;;17.57;35.11;101722.59;4927981;28;20033;-89
2024/01/21 05:39:15;;;;;;;1.75;1.55;;;;;;;17.49;35.26;101688.28;5008452;28;20038;-89
2024/01/21 05:41:40;;;;;;;2.35;1.70;;;;;;;17.28;34.98;101667.41;4923196;28;20651;-87
2024/01/21 05:44:06;;;;;;;1.88;1.50;;;;;;;17.60;35.24;101709.16;4969394;28;20521;-90
2024/01/21 05:46:32;;;;;;;1.92;1.40;;;;;;;17.46;35.10;101684.13;4988686;28;20033;-90
2024/01/21 05:48:58;;;;;;;1.45;1.35;;;;;;;17.34;35.19;101682.63;4967798;28;20044;-90
2024/01/21 05:51:24;;;;;;;1.88;1.70;;;;;;;17.62;34.97;101699.31;4969283;28;20038;-91
2024/01/21 05:53:50;;;;;;;1.90;1.58;;;;;;;17.28;35.06;101627.91;4962266;28;20038;-89
2024/01/21 05:56:18;;;;;;;1.17;1.05;;;;;;;17.55;35.16;101663.97;4971470;28;20197;-89
2024/01/21 05:58:44;;;;;;;1.70;1.45;;;;;;;17.50;34.81;101627.56;5000005;28;20496;-91
2024/01/21 06:01:10;;;;;;;2.03;1.70;;;;;;;17.49;35.16;101623.25;4979124;28;20030;-90
2024/01/21 06:03:36;;;;;;;1.83;1.63;;;;;;;17.57;35.24;101635.69;4999704;28;20049;-89
2024/01/21 06:06:03;;;;;;;2.45;1.60;;;;;;;17.36;34.95;101614.03;4968063;28;20382;-89
2024/01/21 06:08:29;;;;;;;2.05;1.70;;;;;;;17.43;35.22;101652.00;5008943;28;20101;-89
2024/01/21 06:10:54;;;;;;;2.88;1.50;;;;;;;17.68;35.12;101671.59;4936570;28;20038;-90
2024/01/21 06:13:20;;;;;;;1.95;1.52;;;;;;;17.59;35.15;101656.63;4975982;28;20061;-91
2024/01/21 06:15:45;;;;;;;1.95;1.42;;;;;;;17.51;34.91;101591.53;4919742;28;20146;-90
2024/01/21 06:18:11;;;;;;;1.98;1.50;;;;;;;17.51;35.18;101629.22;4990108;28;20080;-91
2024/01/21 06:20:37;;;;;;;2.45;1.60;;;;;;;17.70;35.10;101640.66;4952262;28;20049;-90
2024/01/21 06:23:03;;;;;;;1.40;1.20;;;;;;;17.56;35.22;101601.59;5006029;28;20029;-90
2024/01/21 06:25:28;;;;;;;2.13;1.55;;;;;;;17.43;35.15;101605.41;4940723;28;20274;-90
2024/01/21 06:27:54;;;;;;;2.60;1.73;;;;;;;17.60;35.14;101658.31;5011032;28;20617;-90
2024/01/21 06:30:22;;;;;;;1.58;1.30;;;;;;;17.47;35.25;101608.59;4940290;28;20063;-90
2024/01/21 06:32:48;;;;;;;1.83;1.52;;;;;;;17.46;34.95;101612.19;4978770;28;20045;-90
2024/01/21 06:35:13;;;;;;;2.03;1.65;;;;;;;17.57;35.03;101664.66;4943382;28;20470;-90
2024/01/21 06:37:39;;;;;;;2.15;1.70;;;;;;;17.58;35.28;101683.94;5003509;28;20449;-88
2024/01/21 06:40:05;;;;;;;1.85;1.40;;;;;;;17.27;35.23;101599.94;4943550;28;20103;-89
2024/01/21 06:42:31;;;;;;;1.42;1.30;;;;;;;17.32;35.02;101596.88;4974121;28;20037;-89
2024/01/21 06:44:56;;;;;;;1.98;1.20;;;;;;;17.50;35.34;101632.00;4937207;28;20116;-90
2024/01/21 06:47:22;;;;;;;1.33;1.20;;;;;;;17.52;35.19;101617.69;4984419;28;20108;-89
2024/01/21 06:49:47;;;;;;;1.88;1.48;;;;;;;17.58;35.36;101613.66;4938656;28;20060;-90
2024/01/21 06:52:13;;;;;;;1.33;1.20;;;;;;;17.54;35.16;101588.59;4992316;28;20470;-90
2024/01/21 06:54:40;;;;;;;1.33;1.17;;;;;;;17.45;35.30;101563.97;4931938;28;20046;-89
2024/01/21 06:57:05;;;;;;;2.10;1.55;;;;;;;17.64;35.26;101599.09;4985946;28;20056;-87
2024/01/21 06:59:31;;;;;;;2.15;1.52;;;;;;;17.66;35.18;101661.19;4922170;28;20049;-88
2024/01/21 07:01:57;;;;;;;1.95;1.30;;;;;;;17.15;35.18;101587.91;4998029;28;20049;-89
2024/01/21 07:04:22;;;;;;;2.00;1.60;;;;;;;17.68;35.50;101663.69;4954313;28;20694;-88
2024/01/21 07:06:48;;;;;;;2.17;1.90;;;;;;;17.45;35.21;101585.03;5021798;28;20115;-90
2024/01/21 07:09:14;;;;;;;2.10;1.67;;;;;;;17.39;35.17;101564.53;4936408;28;20059;-90
2024/01/21 07:11:42;;;;;;;1.50;1.33;;;;;;;17.21;35.40;101526.78;5005543;28;20107;-90
2024/01/21 07:14:08;;;;;;;1.30;1.17;;;;;;;17.18;34.97;101504.22;4957056;28;20547;-90
2024/01/21 07:16:34;;;;;;;2.30;1.65;;;;;;;17.62;35.13;101577.34;4985126;28;20045;-89
2024/01/21 07:18:59;;;;;;;2.45;1.73;;;;;;;17.35;34.99;101507.88;4995412;28;20057;-90
2024/01/21 07:21:25;;;;;;;2.45;1.83;;;;;;;17.75;35.12;101620.81;4913492;28;20089;-89
2024/01/21 07:23:51;;;;;;;2.38;1.60;;;;;;;17.92;35.19;101613.09;4985181;28;20091;-89
2024/01/21 07:26:17;;;;;;;2.22;1.48;;;;;;;18.16;35.14;101649.44;4947129;28;20598;-89
2024/01/21 07:28:43;;;;;;;2.33;1.58;;;;;;;18.24;34.96;101623.97;4995520;28;20049;-89
2024/01/21 07:31:09;;;;;;;1.83;1.25;;;;;;;18.24;35.00;101604.69;4943001;28;20127;-89
2024/01/21 07:33:34;;;;;;;2.08;1.88;;;;;;;18.10;34.99;101554.16;5026510;28;20045;-90
2024/01/21 07:36:03;;;;;;;2.33;1.50;;;;;;;18.34;34.90;101574.66;4941486;28;20347;-90
2024/01/21 07:38:29;;;;;;;2.80;1.67;;;;;;;18.29;34.68;101583.97;4976240;28;20121;-91
2024/01/21 07:40:54;;;;;;;2.20;1.58;;;;;;;18.22;34.99;101577.66;4982346;28;20501;-89
2024/01/21 07:43:20;;;;;;;2.28;1.70;;;;;;;18.33;34.70;101580.91;4921677;28;20054;-86
2024/01/21 07:45:46;;;;;;;3.05;1.65;;;;;;;18.29;34.80;101562.88;4989669;28;20041;-88
2024/01/21 07:48:11;;;;;;;1.80;1.48;;;;;;;18.11;34.85;101513.63;4941117;28;20060;-87
2024/01/21 07:50:37;;;;;;;2.20;1.85;;;;;;;17.96;34.67;101486.19;5004453;28;20034;-89
2024/01/21 07:53:03;;;;;;;2.45;1.67;;;;;;;18.52;34.54;101568.53;4957175;28;20037;-90
2024/01/21 07:55:28;;;;;;;1.85;1.67;;;;;;;18.11;34.53;101511.00;5002997;28;20089;-91
2024/01/21 07:57:54;;;;;;;3.72;1.75;;;;;;;18.32;34.68;101557.34;4961836;28;20033;-88
2024/01/21 08:00:20;;;;;;;2.95;2.22;;;;;;;18.37;33.84;101569.06;4977647;28;20049;-89
2024/01/21 08:02:45;;;;;;;3.50;2.40;;;;;;;18.44;33.79;101627.28;5014922;28;20099;-89
2024/01/21 08:05:11;;;;;;;3.15;2.22;;;;;;;18.05;33.64;101558.22;4963116;28;20486;-89
2024/01/21 08:07:36;;;;;;;3.25;2.05;;;;;;;18.21;33.46;101573.38;4969929;28;20033;-90
2024/01/21 08:10:04;;;;;;;3.08;2.28;;;;;;;18.38;33.21;101626.09;4929152;28;20044;-90
2024/01/21 08:12:30;;;;;;;4.35;2.22;;;;;;;18.28;33.17;101635.06;4967969;28;20462;-90
2024/01/21 08:14:56;;;;;;;3.38;2.38;;;;;;;18.20;33.25;101608.63;4941583;28;20045;-88
2024/01/21 08:17:21;;;;;;;3.22;2.30;;;;;;;18.14;33.08;101606.59;4960988;28;20200;-89
2024/01/21 08:19:47;;;;;;;3.25;2.45;;;;;;;18.16;33.01;101597.56;4994401;28;20614;-89
2024/01/21 08:22:13;;;;;;;3.10;2.15;;;;;;;18.24;33.01;101638.97;4926421;28;21421;-90
2024/01/21 08:24:38;;;;;;;3.63;2.63;;;;;;;18.01;32.95;101613.03;5011961;28;20466;-89
2024/01/21 08:27:05;;;;;;;4.22;2.75;;;;;;;18.17;32.91;101654.56;4938087;28;21465;-88
2024/01/21 08:29:31;;;;;;;2.80;2.25;;;;;;;18.27;33.35;101651.84;5005974;28;20065;-87
2024/01/21 08:31:59;;;;;;;3.00;2.13;;;;;;;18.16;33.58;101655.53;4977147;28;20041;-86
2024/01/21 08:34:25;;;;;;;3.13;2.28;;;;;;;18.30;33.66;101668.19;4940712;28;20029;-85
2024/01/21 08:36:51;;;;;;;2.75;2.00;;;;;;;18.33;33.85;101654.72;4975230;28;20042;-85
2024/01/21 08:39:16;;;;;;;3.53;2.10;;;;;;;18.17;34.06;101630.84;4991556;28;20048;-85
2024/01/21 08:41:42;;;;;;;2.80;2.03;;;;;;;18.05;33.79;101590.69;4927134;28;20056;-85
2024/01/21 08:44:08;;;;;;;2.70;1.85;;;;;;;18.51;34.01;101640.72;5008971;28;20068;-85
2024/01/21 08:46:34;;;;;;;3.13;2.35;;;;;;;18.37;34.15;101621.81;4957069;28;20041;-86
2024/01/21 08:48:59;;;;;;;2.70;2.08;;;;;;;18.46;34.06;101616.59;5000000;28;20021;-85
2024/01/21 08:51:25;;;;;;;3.05;2.20;;;;;;;18.04;33.94;101538.94;4957912;28;20397;-86
2024/01/21 08:53:57;;;;;;;3.38;2.25;;;;;;;18.51;33.93;101599.34;4988710;28;20116;-86
2024/01/21 08:56:26;;;;;;;3.42;2.33;;;;;;;18.31;34.02;101564.41;4904418;28;20072;-85
2024/01/21 08:58:53;;;;;;;3.25;2.05;;;;;;;18.60;34.26;101597.59;4984648;28;20143;-86
2024/01/21 09:01:19;;;;;;;2.17;1.98;;;;;;;18.50;33.86;101573.97;5005269;28;20096;-88
2024/01/21 09:03:45;;;;;;;2.50;2.03;;;;;;;18.41;33.91;101565.13;4953716;28;20044;-87
2024/01/21 09:06:11;;;;;;;2.67;2.00;;;;;;;18.76;33.85;101610.94;4990404;28;20037;-88
2024/01/21 09:08:36;;;;;;;3.13;1.98;;;;;;;18.67;33.95;101627.69;4953386;28;20454;-91
2024/01/21 09:11:02;;;;;;;2.90;2.38;;;;;;;18.48;33.57;101589.09;4991737;28;20045;-86
2024/01/21 09:13:28;;;;;;;2.20;1.90;;;;;;;18.91;33.72;101614.69;4952896;28;20052;-83
2024/01/21 09:15:53;;;;;;;2.97;2.20;;;;;;;18.97;33.67;101613.22;4979776;28;25589;-85
2024/01/21 09:18:19;;;;;;;2.53;2.10;;;;;;;18.93;33.82;101596.88;5001953;28;20081;-85
2024/01/21 09:20:44;;;;;;;3.75;1.90;;;;;;;19.18;33.99;101658.56;4999025;28;20115;-86
2024/01/21 09:23:10;;;;;;;2.47;1.88;;;;;;;18.98;34.54;101638.66;4951182;28;20173;-86
2024/01/21 09:25:36;;;;;;;6.30;2.20;;;;;;;19.05;34.63;101644.97;4991292;28;20037;-85
2024/01/21 09:28:05;;;;;;;2.08;1.75;;;;;;;18.77;34.52;101583.56;4930973;28;20045;-90
2024/01/21 09:30:33;;;;;;;2.92;2.13;;;;;;;19.02;34.76;101597.75;4990411;28;20037;-85
2024/01/21 09:32:59;;;;;;;2.63;1.95;;;;;;;19.11;34.54;101596.84;4947328;28;20712;-85
2024/01/21 09:35:24;;;;;;;2.85;2.15;;;;;;;19.05;34.61;101604.56;4976491;28;20056;-87
2024/01/21 09:37:50;;;;;;;2.55;1.90;;;;;;;19.34;34.64;101642.00;5005480;28;20041;-85
2024/01/21 09:40:16;;;;;;;5.18;2.10;;;;;;;19.40;34.78;101637.94;4958574;28;20615;-86
2024/01/21 09:42:42;;;;;;;4.35;2.22;;;;;;;19.33;34.55;101630.63;5011229;28;20048;-85
2024/01/21 09:45:10;;;;;;;3.55;2.40;;;;;;;19.39;34.45;101629.19;4964158;28;20783;-84
2024/01/21 09:47:37;;;;;;;6.95;2.40;;;;;;;19.53;33.42;101643.59;4981776;28;20684;-86
2024/01/21 09:50:04;;;;;;;3.45;2.03;;;;;;;19.22;34.24;101593.94;4962273;28;20055;-83
2024/01/21 09:52:30;;;;;;;2.53;2.03;;;;;;;19.10;34.32;101612.84;4971490;28;20038;-84
2024/01/21 09:54:55;;;;;;;2.97;2.17;;;;;;;19.34;34.13;101639.38;4989457;28;20691;-81
2024/01/21 09:57:21;;;;;;;4.05;2.17;;;;;;;19.19;34.07;101606.59;4969857;28;20045;-80
2024/01/21 09:59:55;;;;;;;2.05;1.70;;;;;;;19.06;33.95;101579.81;4927125;28;20038;-84
2024/01/21 10:02:22;;;;;;;3.50;2.20;;;;;;;19.15;33.91;101603.44;4986666;28;20296;-84
2024/01/21 10:04:48;;;;;;;2.80;2.22;;;;;;;19.20;33.30;101600.34;4951580;28;20446;-85
2024/01/21 10:07:13;;;;;;;3.22;2.10;;;;;;;19.43;33.76;101656.94;5003349;28;20072;-84
2024/01/21 10:09:39;;;;;;;2.17;1.80;;;;;;;19.05;33.76;101586.09;4941364;28;20037;-84
2024/01/21 10:12:06;;;;;;;2.15;1.95;;;;;;;18.92;33.90;101597.88;4986243;28;20111;-84
2024/01/21 10:14:32;;;;;;;2.80;1.92;;;;;;;18.95;34.32;101608.13;4951913;28;20067;-84
2024/01/21 10:17:02;;;;;;;2.33;1.98;;;;;;;19.30;34.15;101645.94;4997810;28;20033;-83
2024/01/21 10:19:30;;;;;;;2.55;1.95;;;;;;;19.17;33.92;101592.72;4963274;28;20037;-84
2024/01/21 10:22:15;;;;;;;2.58;2.00;;;;;;;19.26;33.86;101608.47;5001546;28;20041;-84
2024/01/21 10:24:42;;;;;;;2.88;2.20;;;;;;;19.42;33.86;101625.41;4938318;28;20056;-84
2024/01/21 10:27:08;;;;;;;3.35;1.95;;;;;;;19.46;33.70;101632.00;4987567;28;20469;-82
2024/01/21 10:29:44;;;;;;;2.35;1.88;;;;;;;19.43;33.86;101616.47;4965454;28;20036;-84
2024/01/21 10:32:12;;;;;;;3.25;2.30;;;;;;;19.02;33.92;101550.25;5001566;28;20505;-83
2024/01/21 10:34:44;;;;;;;3.47;2.30;;;;;;;19.47;33.62;101637.13;4972661;28;20033;-83
2024/01/21 10:37:13;;;;;;;3.33;2.10;;;;;;;19.37;34.04;101631.13;5006739;28;20034;-84
2024/01/21 10:39:43;;;;;;;3.88;2.67;;;;;;;19.16;33.95;101576.06;4957365;28;20033;-85
2024/01/21 10:42:09;;;;;;;2.78;2.08;;;;;;;19.52;33.63;101649.88;4987492;28;20038;-83
2024/01/21 10:44:36;;;;;;;2.80;1.95;;;;;;;19.17;34.00;101590.91;4983062;28;20104;-83
2024/01/21 10:47:04;;;;;;;3.38;2.20;;;;;;;19.49;33.73;101639.63;4973619;28;20060;-82
2024/01/21 10:49:31;;;;;;;2.45;2.00;;;;;;;19.43;33.76;101624.41;5004351;28;20461;-85
2024/01/21 10:51:58;;;;;;;3.55;2.13;;;;;;;19.44;33.70;101623.41;4982889;28;20069;-84
2024/01/21 10:54:28;;;;;;;2.90;2.17;;;;;;;18.26;33.83;101432.19;5008307;28;20037;-83
2024/01/21 10:56:54;;;;;;;;;;;;;;;19.58;33.68;101633.44;4978762;28;20045;-84
2024/01/21 10:59:21;;;;;;;3.92;2.15;;;;;;;19.43;33.69;101601.47;5022543;28;20269;-83
2024/01/21 11:01:48;;;;;;;2.28;1.90;;;;;;;19.46;33.69;101609.06;5008971;28;20487;-83
2024/01/21 11:04:14;;;;;;;2.55;2.05;;;;;;;19.49;33.59;101587.59;4981814;28;20104;-82
2024/01/21 11:06:48;;;;;;;2.70;1.75;;;;;;;19.27;33.47;101578.44;4993424;28;20064;-82
2024/01/21 11:09:21;;;;;;;3.90;2.00;;;;;;;19.44;33.71;101602.28;4978150;28;20374;-83
2024/01/21 11:11:49;;;;;;;3.75;2.38;;;;;;;19.56;33.55;101617.72;4989870;28;20140;-82
2024/01/21 11:14:42;;;;;;;3.60;2.35;;;;;;;19.13;33.53;101554.44;4968742;28;20034;-81
2024/01/21 11:17:14;;;;;;;2.53;1.92;;;;;;;19.51;33.66;101629.72;5002816;28;20477;-82
2024/01/21 11:19:50;;;;;;;2.40;1.83;;;;;;;18.59;33.72;101503.63;4974596;28;20029;-82